Time;durP1;ratioP1;P1;durP2;ratioP2;P2;SDS_P1;SDS_P2;PMS_P1;PMS_P2;Temp;Humidity;BMP_temperature;BMP_pressure;BME280_temperature;BME280_humidity;BME280_pressure;Samples;Min_cycle;Max_cycle;Signal;HPM_P1;HPM_P2
2022/03/21 00:01:45;;;;;;;85.70;40.10;;;;;;;2.12;45.12;101537.92;1692935;83;21017;-68
2022/03/21 00:04:12;;;;;;;81.85;39.60;;;;;;;2.10;45.17;101534.52;1689111;83;20951;-68
2022/03/21 00:06:40;;;;;;;83.10;39.73;;;;;;;2.09;45.25;101540.67;1707831;83;22107;-65
2022/03/21 00:09:09;;;;;;;75.03;38.42;;;;;;;2.06;45.31;101533.78;1712250;83;20852;-63
2022/03/21 00:11:39;;;;;;;83.47;36.95;;;;;;;2.06;45.33;101531.16;1711957;83;20899;-67
2022/03/21 00:14:06;;;;;;;75.05;36.60;;;;;;;2.06;45.40;101536.41;1712399;83;20998;-66
2022/03/21 00:16:33;;;;;;;80.38;38.02;;;;;;;2.05;45.42;101533.41;1700431;83;20925;-67
2022/03/21 00:19:03;;;;;;;70.55;35.88;;;;;;;2.04;45.53;101533.47;1712257;83;20948;-67
2022/03/21 00:21:32;;;;;;;75.72;36.03;;;;;;;2.02;45.59;101532.69;1712314;83;20970;-64
2022/03/21 00:23:59;;;;;;;70.17;35.75;;;;;;;1.99;45.70;101530.19;1692706;83;21548;-67
2022/03/21 00:26:28;;;;;;;62.43;32.40;;;;;;;1.96;45.83;101527.69;1706765;83;21006;-64
2022/03/21 00:29:01;;;;;;;69.05;32.63;;;;;;;1.92;45.99;101530.07;1712283;83;20930;-66
2022/03/21 00:31:29;;;;;;;69.30;32.13;;;;;;;1.88;46.09;101524.09;1692325;83;21290;-66
2022/03/21 00:33:56;;;;;;;65.55;32.53;;;;;;;1.82;46.24;101523.92;1712306;83;20932;-66
2022/03/21 00:36:23;;;;;;;63.40;33.05;;;;;;;1.77;46.41;101523.23;1712419;83;20971;-66
2022/03/21 00:38:50;;;;;;;70.45;32.93;;;;;;;1.74;46.52;101518.59;1712418;83;21073;-65
2022/03/21 00:41:25;;;;;;;65.78;32.35;;;;;;;1.69;46.62;101517.94;1712573;83;21437;-69
2022/03/21 00:43:54;;;;;;;79.05;37.28;;;;;;;1.64;46.72;101514.66;1702612;83;20959;-66
2022/03/21 00:46:22;;;;;;;75.65;33.42;;;;;;;1.61;46.87;101516.09;1708441;83;20979;-65
2022/03/21 00:48:50;;;;;;;67.67;35.10;;;;;;;1.57;47.02;101512.73;1712306;83;20998;-65
2022/03/21 00:51:17;;;;;;;62.95;32.25;;;;;;;1.55;47.12;101518.97;1704155;83;21481;-67
2022/03/21 00:53:44;;;;;;;65.47;32.20;;;;;;;1.52;47.19;101512.08;1710448;83;20967;-67
2022/03/21 00:56:13;;;;;;;62.95;31.55;;;;;;;1.52;47.27;101515.16;1710199;83;21839;-66
2022/03/21 00:58:40;;;;;;;67.37;33.38;;;;;;;1.50;47.34;101507.81;1712574;83;21034;-66
2022/03/21 01:01:07;;;;;;;60.08;31.50;;;;;;;1.49;47.33;101506.09;1712450;83;20979;-65
2022/03/21 01:03:35;;;;;;;61.70;31.20;;;;;;;1.48;47.41;101503.95;1698435;83;21498;-66
2022/03/21 01:06:02;;;;;;;59.35;30.43;;;;;;;1.50;47.37;101505.19;1711076;83;20991;-68
2022/03/21 01:08:30;;;;;;;62.48;32.53;;;;;;;1.51;47.35;101504.28;1712327;83;21312;-68
2022/03/21 01:10:57;;;;;;;65.37;32.20;;;;;;;1.50;47.26;101502.56;1712502;83;20888;-66
2022/03/21 01:13:25;;;;;;;61.20;31.35;;;;;;;1.51;47.24;101502.97;1705762;83;20935;-66
2022/03/21 01:15:52;;;;;;;56.05;31.40;;;;;;;1.50;47.23;101502.56;1711097;83;21513;-67
2022/03/21 01:18:22;;;;;;;62.38;31.42;;;;;;;1.51;47.24;101503.80;1709519;83;21563;-65
2022/03/21 01:20:50;;;;;;;57.67;30.32;;;;;;;1.50;47.37;101508.67;1712279;83;21272;-67
2022/03/21 01:23:18;;;;;;;62.58;31.68;;;;;;;1.51;47.44;101492.48;1696100;83;20959;-67
2022/03/21 01:25:45;;;;;;;58.17;31.57;;;;;;;1.52;47.50;101493.72;1695613;83;21491;-66
2022/03/21 01:28:13;;;;;;;57.95;31.10;;;;;;;1.55;47.54;101488.80;1712549;83;21179;-66
2022/03/21 01:30:40;;;;;;;60.85;32.15;;;;;;;1.55;47.62;101486.17;1702010;83;21029;-65
2022/03/21 01:33:07;;;;;;;60.85;33.85;;;;;;;1.58;47.60;101489.53;1712648;83;21265;-66
2022/03/21 01:35:34;;;;;;;56.65;30.88;;;;;;;1.60;47.60;101484.20;1687153;83;21067;-67
2022/03/21 01:38:01;;;;;;;67.58;33.75;;;;;;;1.60;47.62;101479.81;1712580;83;20995;-66
2022/03/21 01:40:30;;;;;;;55.25;31.05;;;;;;;1.60;47.64;101478.51;1712558;83;21075;-66
2022/03/21 01:42:57;;;;;;;60.38;32.30;;;;;;;1.62;47.65;101477.11;1710480;83;20915;-65
2022/03/21 01:45:26;;;;;;;64.53;32.53;;;;;;;1.61;47.62;101472.80;1704143;83;21868;-65
2022/03/21 01:47:53;;;;;;;59.80;32.85;;;;;;;1.60;47.66;101472.40;1692626;83;20912;-67
2022/03/21 01:50:21;;;;;;;53.73;30.17;;;;;;;1.59;47.61;101470.23;1707783;83;21039;-68
2022/03/21 01:52:48;;;;;;;50.65;30.72;;;;;;;1.56;47.64;101473.46;1712476;83;21007;-66
2022/03/21 01:58:02;;;;;;;54.20;29.80;;;;;;;1.53;47.69;101476.21;1701929;83;21296;-66
2022/03/21 02:00:29;;;;;;;60.08;29.98;;;;;;;1.52;47.71;101482.36;1712425;83;20994;-66
2022/03/21 02:02:56;;;;;;;56.08;29.05;;;;;;;1.49;47.74;101472.86;1712481;83;21488;-65
2022/03/21 02:05:23;;;;;;;54.67;28.50;;;;;;;1.50;47.68;101473.71;1709853;83;20942;-67
2022/03/21 02:07:50;;;;;;;51.05;27.95;;;;;;;1.48;47.65;101473.79;1692124;83;21061;-64
2022/03/21 02:10:18;;;;;;;53.65;28.65;;;;;;;1.45;47.66;101471.30;1692737;83;22176;-66
2022/03/21 02:12:47;;;;;;;57.00;30.77;;;;;;;1.41;47.77;101470.18;1714437;83;21537;-64
2022/03/21 02:15:14;;;;;;;52.83;28.95;;;;;;;1.37;47.87;101472.06;1710359;83;20990;-65
2022/03/21 02:17:43;;;;;;;56.63;29.95;;;;;;;1.34;47.97;101477.44;1720498;83;20911;-69
2022/03/21 02:20:11;;;;;;;47.98;27.67;;;;;;;1.32;48.13;101479.73;1692646;83;20998;-66
2022/03/21 02:23:08;;;;;;;55.10;29.42;;;;;;;1.27;48.24;101473.83;1706701;83;21292;-65
2022/03/21 02:25:36;;;;;;;45.40;27.45;;;;;;;1.22;48.42;101467.47;1720246;83;20895;-65
2022/03/21 02:28:14;;;;;;;50.58;29.27;;;;;;;1.16;48.73;101471.64;1720211;83;20935;-67
2022/03/21 02:30:45;;;;;;;55.20;29.77;;;;;;;1.10;48.89;101472.74;1720088;83;20983;-64
2022/03/21 02:33:17;;;;;;;57.17;29.55;;;;;;;1.06;49.16;101465.94;1708993;83;20950;-68
2022/03/21 02:35:49;;;;;;;52.33;28.73;;;;;;;1.03;49.51;101465.20;1720092;83;21889;-65
2022/03/21 02:38:17;;;;;;;52.80;29.50;;;;;;;0.97;49.74;101459.73;1720017;83;20926;-67
2022/03/21 02:40:46;;;;;;;55.80;30.37;;;;;;;0.94;50.03;101459.86;1720128;82;20895;-68
2022/03/21 02:43:13;;;;;;;56.30;30.40;;;;;;;0.94;50.30;101455.09;1707623;83;21497;-65
2022/03/21 02:45:42;;;;;;;50.48;29.87;;;;;;;0.94;50.47;101466.41;1705334;83;21484;-65
2022/03/21 02:48:13;;;;;;;53.25;28.87;;;;;;;0.95;50.46;101470.75;1715090;83;21302;-65
2022/03/21 02:50:56;;;;;;;50.98;29.55;;;;;;;0.93;50.53;101469.97;1719951;83;20927;-65
2022/03/21 02:53:23;;;;;;;46.95;27.20;;;;;;;0.92;50.42;101470.00;1707384;83;21027;-66
2022/03/21 02:55:55;;;;;;;52.35;27.93;;;;;;;0.89;50.54;101466.19;1709794;83;20966;-67
2022/03/21 02:58:22;;;;;;;46.50;28.65;;;;;;;0.89;50.78;101468.36;1720357;83;21011;-66
2022/03/21 03:00:49;;;;;;;50.45;29.35;;;;;;;0.88;50.81;101469.30;1720146;83;22142;-66
2022/03/21 03:03:16;;;;;;;46.70;26.82;;;;;;;0.88;50.93;101467.13;1709218;83;20967;-67
2022/03/21 03:05:45;;;;;;;42.67;25.40;;;;;;;0.85;51.11;101465.94;1705361;83;20896;-66
2022/03/21 03:08:12;;;;;;;44.88;27.67;;;;;;;0.87;51.10;101466.27;1709776;83;20919;-67
2022/03/21 03:10:40;;;;;;;45.38;26.87;;;;;;;0.88;51.03;101473.23;1704538;83;20920;-64
2022/03/21 03:13:09;;;;;;;43.78;26.12;;;;;;;0.88;51.08;101471.05;1712483;83;21267;-65
2022/03/21 03:15:37;;;;;;;46.20;26.37;;;;;;;0.90;50.92;101467.91;1712474;83;20891;-67
2022/03/21 03:18:05;;;;;;;45.25;25.57;;;;;;;0.89;50.91;101474.91;1712475;83;20903;-67
2022/03/21 03:20:32;;;;;;;41.40;25.43;;;;;;;0.88;50.87;101473.23;1696695;83;21007;-67
2022/03/21 03:23:00;;;;;;;43.95;25.25;;;;;;;0.87;50.75;101468.03;1712534;83;21002;-65
2022/03/21 03:25:27;;;;;;;40.35;26.27;;;;;;;0.85;50.82;101469.86;1712413;83;21313;-67
2022/03/21 03:27:57;;;;;;;44.13;26.65;;;;;;;0.83;50.90;101467.32;1704573;83;20891;-65
2022/03/21 03:30:24;;;;;;;43.42;26.05;;;;;;;0.82;51.12;101467.36;1712300;83;21556;-65
2022/03/21 03:32:53;;;;;;;43.90;26.33;;;;;;;0.80;51.30;101461.34;1712483;83;21485;-66
2022/03/21 03:35:20;;;;;;;48.25;27.37;;;;;;;0.78;51.34;101469.27;1712659;83;21070;-66
2022/03/21 03:37:49;;;;;;;50.88;28.45;;;;;;;0.78;51.45;101474.52;1705167;83;20949;-68
2022/03/21 03:40:17;;;;;;;45.75;26.73;;;;;;;0.77;51.61;101469.31;1712381;83;20911;-65
2022/03/21 03:42:44;;;;;;;43.30;26.05;;;;;;;0.74;51.72;101475.97;1712472;83;20976;-65
2022/03/21 03:45:13;;;;;;;42.98;26.97;;;;;;;0.71;51.80;101473.47;1712453;83;20947;-64
2022/03/21 03:47:42;;;;;;;41.18;25.00;;;;;;;0.71;51.89;101478.27;1702099;83;21066;-66
2022/03/21 03:50:10;;;;;;;42.08;25.92;;;;;;;0.69;51.97;101473.55;1704105;83;21217;-66
2022/03/21 03:52:37;;;;;;;40.23;25.05;;;;;;;0.67;52.05;101479.31;1694879;83;20879;-66
2022/03/21 03:55:06;;;;;;;38.85;25.35;;;;;;;0.65;52.03;101477.21;1712506;83;20943;-66
2022/03/21 03:57:35;;;;;;;47.75;26.68;;;;;;;0.64;52.02;101475.49;1712408;83;21017;-69
2022/03/21 04:00:03;;;;;;;45.38;27.67;;;;;;;0.63;52.06;101473.32;1712451;83;20911;-66
2022/03/21 04:03:44;;;;;;;44.25;25.80;;;;;;;0.65;52.12;101480.28;1705153;83;21274;-67
2022/03/21 04:05:02;;;;;;;44.73;24.80;;;;;;;0.64;52.13;101479.42;1709359;83;20947;-65
2022/03/21 04:07:29;;;;;;;43.63;25.17;;;;;;;0.65;52.13;101481.14;1710522;83;21567;-67
2022/03/21 04:09:58;;;;;;;38.58;24.63;;;;;;;0.66;52.14;101476.28;1693557;83;20912;-66
2022/03/21 04:12:25;;;;;;;37.17;24.10;;;;;;;0.67;52.08;101478.00;1712536;83;20984;-67
2022/03/21 04:14:52;;;;;;;45.80;26.05;;;;;;;0.68;52.05;101476.23;1712362;83;21296;-67
2022/03/21 04:17:20;;;;;;;40.35;25.80;;;;;;;0.69;52.03;101475.30;1712444;83;21392;-66
2022/03/21 04:19:47;;;;;;;40.78;25.52;;;;;;;0.72;52.01;101480.43;1701454;83;20980;-64
2022/03/21 04:22:15;;;;;;;42.35;25.90;;;;;;;0.72;52.01;101480.43;1712417;83;20939;-66
2022/03/21 04:24:42;;;;;;;39.60;24.43;;;;;;;0.72;52.05;101481.73;1712449;83;20951;-65
2022/03/21 04:27:09;;;;;;;40.55;24.25;;;;;;;0.75;52.03;101479.01;1712553;83;22025;-67
2022/03/21 04:29:36;;;;;;;39.10;25.05;;;;;;;0.80;52.08;101484.47;1712127;83;20888;-68
2022/03/21 04:32:05;;;;;;;36.50;23.67;;;;;;;0.87;52.07;101478.06;1702957;83;20987;-66
2022/03/21 04:34:32;;;;;;;37.80;22.98;;;;;;;1.01;51.97;101480.14;1712341;83;20947;-65
2022/03/21 04:37:00;;;;;;;37.88;23.80;;;;;;;1.16;51.78;101480.37;1712447;83;20995;-66
2022/03/21 04:39:27;;;;;;;39.25;24.65;;;;;;;1.36;51.54;101485.23;1712313;83;21092;-68
2022/03/21 04:41:55;;;;;;;39.53;24.47;;;;;;;1.56;51.22;101482.19;1711005;83;20911;-67
2022/03/21 04:44:23;;;;;;;39.45;24.80;;;;;;;1.80;50.78;101477.18;1698308;83;21046;-65
2022/03/21 04:46:51;;;;;;;41.08;24.35;;;;;;;2.06;50.35;101482.59;1703586;83;21588;-64
2022/03/21 04:49:19;;;;;;;48.23;24.37;;;;;;;2.39;49.77;101483.72;1712528;83;21501;-68
2022/03/21 04:51:46;;;;;;;36.25;24.10;;;;;;;2.70;49.14;101484.91;1712315;83;21325;-68
2022/03/21 04:54:13;;;;;;;43.90;25.75;;;;;;;2.99;48.46;101472.55;1707644;83;21550;-65
2022/03/21 04:56:40;;;;;;;39.60;25.77;;;;;;;3.31;47.72;101469.17;1710098;83;20951;-67
2022/03/21 04:59:07;;;;;;;40.17;26.33;;;;;;;3.62;47.08;101471.14;1712486;83;20907;-68
2022/03/21 05:01:36;;;;;;;44.13;26.05;;;;;;;3.98;46.39;101471.00;1706800;83;20986;-69
2022/03/21 05:04:03;;;;;;;48.95;26.87;;;;;;;4.32;45.70;101472.23;1712475;83;21278;-68
2022/03/21 05:06:31;;;;;;;43.48;25.65;;;;;;;4.67;45.11;101465.88;1716440;83;20962;-65
2022/03/21 05:09:02;;;;;;;40.33;25.10;;;;;;;5.02;44.54;101458.62;1720128;83;20974;-65
2022/03/21 05:11:28;;;;;;;40.30;25.10;;;;;;;5.38;44.02;101459.14;1700477;83;20970;-67
2022/03/21 05:13:56;;;;;;;39.50;25.08;;;;;;;5.77;43.34;101454.61;1703256;83;20931;-67
2022/03/21 05:16:24;;;;;;;43.33;24.43;;;;;;;6.10;42.76;101456.55;1720133;83;21261;-67
2022/03/21 05:18:53;;;;;;;39.18;24.77;;;;;;;6.49;42.26;101459.00;1719937;83;20966;-66
2022/03/21 05:21:20;;;;;;;36.50;24.85;;;;;;;6.81;41.85;101453.81;1720063;83;20903;-66
2022/03/21 05:32:05;;;;;;;45.83;26.25;;;;;;;8.50;38.82;101446.15;1720098;83;20941;-67
2022/03/21 05:37:18;;;;;;;40.20;25.62;;;;;;;9.21;37.50;101442.22;1712226;83;21501;-65
2022/03/21 05:42:32;;;;;;;40.17;27.60;;;;;;;10.03;36.95;101448.36;1720184;83;21269;-67
2022/03/21 05:44:59;;;;;;;46.85;29.27;;;;;;;10.47;36.22;101451.91;1720012;83;21001;-67
2022/03/21 05:47:26;;;;;;;46.77;30.50;;;;;;;10.86;35.56;101445.67;1708074;83;21016;-66
2022/03/21 05:49:53;;;;;;;44.10;29.45;;;;;;;11.31;34.94;101447.70;1719498;83;21485;-67
2022/03/21 05:52:21;;;;;;;43.08;28.60;;;;;;;11.78;34.29;101447.25;1720013;83;21025;-68
2022/03/21 05:54:48;;;;;;;45.17;28.83;;;;;;;12.20;33.58;101440.87;1719990;83;22242;-67
2022/03/21 05:57:15;;;;;;;40.75;28.38;;;;;;;12.63;32.95;101445.11;1712527;83;21041;-65
2022/03/21 06:02:31;;;;;;;39.00;27.10;;;;;;;13.29;32.14;101450.25;1718279;83;21021;-67
2022/03/21 06:05:01;;;;;;;48.58;27.58;;;;;;;13.66;31.57;101448.52;1720095;83;20947;-68
2022/03/21 06:07:28;;;;;;;42.03;28.15;;;;;;;14.01;31.21;101454.09;1720010;83;21330;-70
2022/03/21 06:09:55;;;;;;;36.42;26.25;;;;;;;14.33;30.91;101450.23;1708130;83;20927;-68
2022/03/21 06:12:25;;;;;;;42.08;26.70;;;;;;;14.65;30.54;101459.50;1720262;83;21501;-68
2022/03/21 06:14:52;;;;;;;33.00;24.70;;;;;;;14.99;29.93;101451.69;1716602;83;21477;-69
2022/03/21 06:17:20;;;;;;;33.70;25.55;;;;;;;15.18;29.63;101455.58;1720289;83;20994;-67
2022/03/21 06:19:47;;;;;;;38.42;25.97;;;;;;;15.39;29.45;101446.73;1720192;83;21271;-65
2022/03/21 06:22:14;;;;;;;32.38;25.20;;;;;;;15.70;29.36;101444.51;1710507;83;21556;-68
2022/03/21 06:24:41;;;;;;;31.07;23.27;;;;;;;16.03;28.89;101447.75;1720154;83;20986;-67
2022/03/21 06:27:09;;;;;;;31.55;22.75;;;;;;;16.29;28.25;101450.45;1720174;83;20939;-67
2022/03/21 06:29:41;;;;;;;28.92;20.40;;;;;;;16.56;27.71;101448.06;1720313;83;20923;-67
2022/03/21 06:32:07;;;;;;;24.57;18.62;;;;;;;16.78;27.10;101448.84;1713270;83;21227;-68
2022/03/21 06:34:34;;;;;;;21.42;16.80;;;;;;;16.99;25.54;101443.02;1720205;83;20938;-67
2022/03/21 06:37:02;;;;;;;23.90;16.42;;;;;;;17.15;24.57;101442.52;1720125;83;21025;-66
2022/03/21 06:39:29;;;;;;;20.32;15.85;;;;;;;17.26;24.03;101434.64;1720008;83;21002;-68
2022/03/21 06:41:56;;;;;;;21.62;16.90;;;;;;;17.33;23.72;101438.37;1714600;83;21440;-67
2022/03/21 06:44:24;;;;;;;20.12;17.30;;;;;;;17.48;23.60;101439.38;1720157;83;21262;-67
2022/03/21 06:46:51;;;;;;;21.82;16.40;;;;;;;17.69;23.43;101436.21;1720158;83;20981;-65
2022/03/21 06:49:20;;;;;;;26.17;16.93;;;;;;;17.92;23.15;101435.84;1720229;83;21458;-67
2022/03/21 06:51:47;;;;;;;17.48;15.53;;;;;;;18.16;22.92;101441.19;1720166;83;21652;-68
2022/03/21 06:54:14;;;;;;;24.47;17.35;;;;;;;18.39;22.65;101438.59;1706413;83;20946;-68
2022/03/21 06:56:43;;;;;;;21.07;17.92;;;;;;;18.60;22.45;101444.27;1720371;83;21274;-68
2022/03/21 06:59:10;;;;;;;23.60;17.23;;;;;;;18.80;22.20;101439.27;1720097;83;21429;-68
2022/03/21 07:01:37;;;;;;;26.17;18.27;;;;;;;18.96;22.03;101440.54;1697617;83;21044;-68
2022/03/21 07:04:05;;;;;;;21.77;16.52;;;;;;;19.17;21.88;101447.48;1711941;83;20934;-68
2022/03/21 07:06:33;;;;;;;33.13;18.07;;;;;;;19.37;21.67;101433.87;1715225;83;21528;-69
2022/03/21 07:09:01;;;;;;;25.57;17.12;;;;;;;19.51;21.52;101442.55;1716995;83;21284;-67
2022/03/21 07:11:29;;;;;;;27.95;18.67;;;;;;;19.69;21.37;101439.52;1708353;83;20914;-65
2022/03/21 07:13:57;;;;;;;19.27;17.23;;;;;;;19.84;21.17;101442.28;1682957;83;20931;-68
2022/03/21 07:16:25;;;;;;;23.00;17.27;;;;;;;19.95;21.09;101446.70;1707881;83;21077;-68
2022/03/21 07:18:54;;;;;;;37.30;18.80;;;;;;;20.15;20.88;101442.97;1707622;83;21485;-71
2022/03/21 07:21:22;;;;;;;27.45;17.87;;;;;;;20.21;20.79;101447.11;1720391;83;21349;-66
2022/03/21 07:23:49;;;;;;;26.70;17.82;;;;;;;20.31;20.76;101445.00;1719978;83;20915;-67
2022/03/21 07:26:16;;;;;;;21.60;17.48;;;;;;;20.47;20.69;101444.47;1715598;83;21427;-66
2022/03/21 07:28:43;;;;;;;23.67;16.45;;;;;;;20.63;20.56;101446.48;1720112;83;20987;-67
2022/03/21 07:31:11;;;;;;;18.40;16.52;;;;;;;20.87;20.36;101451.57;1720047;83;20860;-68
2022/03/21 07:33:38;;;;;;;21.50;16.42;;;;;;;21.09;20.13;101445.70;1720121;83;22344;-66
2022/03/21 07:36:07;;;;;;;18.45;16.07;;;;;;;21.12;19.96;101449.38;1693441;83;20991;-63
2022/03/21 07:38:35;;;;;;;21.97;16.75;;;;;;;21.16;20.04;101445.78;1710330;83;20950;-64
2022/03/21 07:41:05;;;;;;;17.90;15.93;;;;;;;21.23;19.88;101451.59;1716680;83;20954;-66
2022/03/21 07:43:37;;;;;;;18.55;16.25;;;;;;;21.31;19.99;101447.91;1716152;83;20990;-65
2022/03/21 07:48:51;;;;;;;18.55;16.65;;;;;;;21.69;19.72;101449.85;1720213;83;20892;-64
2022/03/21 07:51:18;;;;;;;18.00;15.40;;;;;;;21.80;19.72;101450.14;1706693;83;21074;-64
2022/03/21 07:53:46;;;;;;;17.37;15.43;;;;;;;22.00;19.56;101448.44;1717739;83;20983;-65
2022/03/21 07:56:14;;;;;;;15.10;13.60;;;;;;;22.12;19.23;101444.69;1720169;83;20990;-66
2022/03/21 07:58:41;;;;;;;14.50;13.20;;;;;;;22.17;18.93;101452.21;1720284;83;21270;-65
2022/03/21 08:01:09;;;;;;;14.83;13.28;;;;;;;22.16;18.75;101445.95;1709984;83;21482;-66
2022/03/21 08:03:36;;;;;;;14.00;12.60;;;;;;;22.08;18.80;101443.42;1715623;83;20911;-65
2022/03/21 08:06:10;;;;;;;13.93;12.53;;;;;;;22.10;18.85;101443.54;1720106;83;21537;-64
2022/03/21 08:08:34;;;;;;;13.80;12.43;;;;;;;22.30;18.59;101442.30;1733031;82;20947;-66
2022/03/21 08:11:02;;;;;;;14.65;13.20;;;;;;;22.41;18.40;101440.90;1696984;82;21267;-66
2022/03/21 08:13:34;;;;;;;14.68;13.25;;;;;;;22.49;18.34;101434.80;1713503;83;20994;-66
2022/03/21 08:16:03;;;;;;;14.50;12.18;;;;;;;22.71;18.13;101432.31;1725828;83;21025;-66
2022/03/21 08:18:31;;;;;;;14.73;12.90;;;;;;;22.72;18.19;101427.73;1725763;83;20966;-67
2022/03/21 08:21:00;;;;;;;14.18;12.68;;;;;;;22.89;18.20;101438.53;1724512;83;21548;-67
2022/03/21 08:23:28;;;;;;;14.73;12.90;;;;;;;23.16;18.02;101429.95;1650371;86;21186;-65
2022/03/21 08:25:57;;;;;;;16.20;14.10;;;;;;;23.30;17.84;101427.59;1717684;83;20948;-65
2022/03/21 08:28:25;;;;;;;14.18;11.83;;;;;;;23.36;17.80;101425.38;1717759;83;20927;-65
2022/03/21 08:30:52;;;;;;;13.05;11.85;;;;;;;23.42;17.66;101427.31;1717760;83;20955;-66
2022/03/21 08:33:20;;;;;;;14.83;13.43;;;;;;;23.44;17.50;101428.48;1713121;83;20993;-67
2022/03/21 08:35:49;;;;;;;14.38;12.25;;;;;;;23.45;17.36;101428.77;1717708;83;21316;-68
2022/03/21 08:38:16;;;;;;;14.30;13.10;;;;;;;23.46;17.40;101425.02;1717634;83;20975;-67
2022/03/21 08:40:43;;;;;;;12.95;11.63;;;;;;;23.63;17.37;101423.56;1717772;83;20951;-65
2022/03/21 08:43:10;;;;;;;13.43;12.03;;;;;;;23.92;17.03;101419.90;1714101;83;21438;-64
2022/03/21 08:45:37;;;;;;;16.17;13.18;;;;;;;24.15;16.95;101419.47;1713269;83;20892;-68
2022/03/21 08:48:05;;;;;;;13.90;12.58;;;;;;;24.35;16.79;101418.88;1705970;83;21143;-70
2022/03/21 08:50:34;;;;;;;13.98;12.58;;;;;;;24.25;16.88;101411.70;1717635;83;20955;-68
2022/03/21 08:53:03;;;;;;;13.08;11.78;;;;;;;24.25;16.88;101411.70;1700224;83;21540;-67
2022/03/21 08:55:30;;;;;;;13.98;11.48;;;;;;;24.23;16.74;101408.37;1718072;83;21039;-69
2022/03/21 08:57:58;;;;;;;12.70;11.48;;;;;;;24.25;16.52;101407.63;1713330;83;20879;-64
2022/03/21 09:00:26;;;;;;;12.40;11.12;;;;;;;24.38;16.54;101402.14;1699550;83;22272;-65
2022/03/21 09:02:54;;;;;;;15.58;11.43;;;;;;;24.71;16.33;101392.50;1716613;83;20990;-66
2022/03/21 09:05:22;;;;;;;12.40;11.20;;;;;;;25.03;16.18;101392.86;1707206;83;21029;-66
2022/03/21 09:07:49;;;;;;;14.03;11.40;;;;;;;25.46;15.85;101392.18;1702997;83;20962;-67
2022/03/21 09:10:18;;;;;;;12.93;11.63;;;;;;;25.67;15.36;101389.07;1704394;83;20943;-67
2022/03/21 09:12:45;;;;;;;12.43;11.15;;;;;;;25.61;15.34;101383.98;1692515;83;21247;-66
2022/03/21 09:15:12;;;;;;;11.75;10.65;;;;;;;25.74;15.37;101385.22;1712574;83;21572;-65
2022/03/21 09:17:41;;;;;;;12.33;11.03;;;;;;;25.98;15.29;101385.41;1712529;83;20972;-65
2022/03/21 09:20:10;;;;;;;11.53;10.43;;;;;;;26.22;14.92;101386.77;1712731;83;20958;-66
2022/03/21 09:22:37;;;;;;;12.35;10.68;;;;;;;26.42;14.76;101374.23;1712699;83;20891;-64
2022/03/21 09:25:06;;;;;;;11.80;10.68;;;;;;;26.59;14.57;101376.66;1660871;86;21169;-65
2022/03/21 09:27:37;;;;;;;12.28;11.18;;;;;;;26.61;14.43;101371.80;1683147;85;20915;-65
2022/03/21 09:30:05;;;;;;;12.25;10.90;;;;;;;26.52;14.55;101375.89;1650871;86;21550;-63
2022/03/21 09:32:33;;;;;;;17.90;10.38;;;;;;;26.74;14.47;101367.53;1711758;83;20978;-66
2022/03/21 09:35:00;;;;;;;11.28;10.18;;;;;;;26.68;13.99;101363.52;1684286;83;21029;-66
2022/03/21 09:37:27;;;;;;;11.88;9.35;;;;;;;26.42;14.24;101359.76;1711126;83;21926;-65
2022/03/21 09:39:55;;;;;;;12.05;10.98;;;;;;;26.28;14.21;101363.20;1695519;83;20986;-68
2022/03/21 09:42:22;;;;;;;12.63;9.20;;;;;;;26.11;14.25;101364.81;1710964;83;21031;-65
2022/03/21 09:44:52;;;;;;;12.63;8.50;;;;;;;26.12;14.31;101351.50;1680019;85;21485;-67
2022/03/21 09:50:12;;;;;;;13.80;8.30;;;;;;;25.95;13.80;101359.95;1654221;86;22124;-63
2022/03/21 09:52:39;;;;;;;14.03;8.93;;;;;;;25.78;13.83;101352.91;1680148;85;20895;-66
2022/03/21 09:55:07;;;;;;;10.70;8.45;;;;;;;25.64;13.92;101357.64;1708345;83;20968;-64
2022/03/21 09:57:35;;;;;;;8.93;7.80;;;;;;;25.53;13.73;101347.47;1720195;83;20958;-65
2022/03/21 10:00:06;;;;;;;10.53;8.15;;;;;;;25.41;13.96;101347.87;1720319;83;20986;-65
2022/03/21 10:02:35;;;;;;;8.95;7.40;;;;;;;25.44;14.01;101346.06;1711495;83;21588;-65
2022/03/21 10:05:04;;;;;;;7.92;7.10;;;;;;;25.36;13.63;101343.62;1719838;83;20943;-65
2022/03/21 10:07:31;;;;;;;9.75;6.72;;;;;;;25.16;13.78;101342.92;1697118;83;20934;-66
2022/03/21 10:10:12;;;;;;;10.13;7.35;;;;;;;24.98;13.69;101340.95;1713001;83;21077;-67
2022/03/21 10:12:41;;;;;;;7.92;7.22;;;;;;;24.74;13.86;101341.70;1700780;83;20928;-65
2022/03/21 10:15:10;;;;;;;6.90;5.47;;;;;;;24.18;14.06;101340.19;1712639;83;21258;-65
2022/03/21 10:17:37;;;;;;;7.28;6.03;;;;;;;23.29;14.89;101337.14;1699778;83;20951;-65
2022/03/21 10:20:15;;;;;;;6.80;6.12;;;;;;;22.80;15.38;101334.46;1712754;83;21473;-64
2022/03/21 10:22:43;;;;;;;6.87;6.28;;;;;;;22.30;16.05;101333.01;1712046;82;21490;-65
2022/03/21 10:25:12;;;;;;;10.38;5.65;;;;;;;22.30;16.05;101333.01;1704809;83;20860;-66
2022/03/21 10:27:45;;;;;;;8.55;6.75;;;;;;;22.04;16.13;101330.50;1712624;83;21415;-66
2022/03/21 10:30:23;;;;;;;11.30;6.92;;;;;;;21.78;16.34;101325.41;1698973;83;21037;-65
2022/03/21 10:32:55;;;;;;;7.05;6.33;;;;;;;21.50;16.57;101326.28;1708229;83;20979;-65
2022/03/21 10:35:26;;;;;;;8.08;5.65;;;;;;;21.20;16.98;101311.74;1696702;83;20963;-67
2022/03/21 10:38:01;;;;;;;8.35;6.47;;;;;;;20.92;17.49;101320.64;1701720;83;21095;-67
2022/03/21 10:40:37;;;;;;;8.20;6.33;;;;;;;20.66;17.90;101316.81;1642577;85;21844;-68
2022/03/21 10:43:11;;;;;;;11.05;5.50;;;;;;;20.45;18.28;101315.42;1659966;85;21499;-66
2022/03/21 10:45:49;;;;;;;6.57;5.40;;;;;;;20.17;18.40;101313.41;1678235;85;20984;-66
2022/03/21 10:48:22;;;;;;;11.40;6.78;;;;;;;19.91;18.57;101315.77;1653079;86;21000;-66
2022/03/21 10:50:52;;;;;;;11.53;5.83;;;;;;;19.69;18.95;101314.82;1712334;83;20931;-66
2022/03/21 10:53:23;;;;;;;9.45;6.45;;;;;;;19.62;19.13;101299.55;1712564;83;21315;-65
2022/03/21 10:56:04;;;;;;;10.15;5.87;;;;;;;19.49;19.21;101315.04;1712358;83;20895;-67
2022/03/21 10:58:38;;;;;;;6.62;6.03;;;;;;;19.35;19.27;101308.22;1708939;83;21793;-67
2022/03/21 11:01:19;;;;;;;10.68;6.50;;;;;;;19.18;19.46;101305.35;1712426;83;20983;-64
2022/03/21 11:03:49;;;;;;;6.37;5.55;;;;;;;19.05;19.64;101301.42;1712608;83;20895;-66
2022/03/21 11:06:16;;;;;;;7.03;5.33;;;;;;;18.94;19.98;101299.65;1697865;83;21337;-66
2022/03/21 11:08:47;;;;;;;7.45;5.42;;;;;;;18.90;20.09;101287.56;1707266;83;20994;-66
2022/03/21 11:11:14;;;;;;;8.38;5.37;;;;;;;18.91;20.19;101290.56;1690759;83;21078;-64
2022/03/21 11:13:42;;;;;;;8.88;5.50;;;;;;;18.96;20.28;101290.86;1662760;85;21585;-66
2022/03/21 11:16:11;;;;;;;7.00;4.92;;;;;;;19.00;20.11;101280.05;1658806;86;20873;-65
2022/03/21 11:18:40;;;;;;;7.90;5.58;;;;;;;18.99;20.20;101281.91;1700474;84;21169;-67
2022/03/21 11:21:11;;;;;;;7.70;5.67;;;;;;;18.98;20.18;101282.10;1709857;84;20919;-67
2022/03/21 11:23:37;;;;;;;6.95;6.08;;;;;;;18.89;20.28;101281.32;1709813;84;21425;-65
2022/03/21 11:26:27;;;;;;;6.40;5.80;;;;;;;18.94;21.32;101279.42;1702705;84;20986;-67
2022/03/21 11:29:09;;;;;;;6.85;6.17;;;;;;;18.86;21.13;101270.89;1694781;84;21033;-68
2022/03/21 11:32:03;;;;;;;6.03;5.42;;;;;;;18.77;21.28;101264.41;1694779;84;23328;-70
2022/03/21 11:35:04;;;;;;;7.45;6.50;;;;;;;18.56;21.34;101266.42;1694178;84;20911;-66
2022/03/21 11:37:33;;;;;;;10.18;5.50;;;;;;;18.43;21.83;101264.78;1709765;84;21952;-65
2022/03/21 11:40:24;;;;;;;6.53;5.90;;;;;;;18.45;22.03;101258.20;1709927;84;21043;-67
2022/03/21 11:42:53;;;;;;;7.67;5.20;;;;;;;18.45;21.77;101252.81;1704522;83;21073;-65
2022/03/21 11:45:26;;;;;;;6.78;5.62;;;;;;;18.35;21.83;101249.48;1709839;84;21285;-66
2022/03/21 11:48:25;;;;;;;13.75;5.97;;;;;;;18.27;21.83;101255.45;1709078;83;20994;-66